sensor_id;sensor_type;location;lat;lon;timestamp;P1;durP1;ratioP1;P2;durP2;ratioP2
44662;SDS011;30381;52.754;18.258;2023-02-10T00:01:56;56.20;;;22.30;;
44662;SDS011;30381;52.754;18.258;2023-02-10T00:04:22;53.90;;;21.90;;
44662;SDS011;30381;52.754;18.258;2023-02-10T00:06:53;57.00;;;23.20;;
44662;SDS011;30381;52.754;18.258;2023-02-10T00:09:19;53.00;;;22.40;;
44662;SDS011;30381;52.754;18.258;2023-02-10T00:11:45;50.20;;;21.70;;
44662;SDS011;30381;52.754;18.258;2023-02-10T00:14:26;49.60;;;21.40;;
44662;SDS011;30381;52.754;18.258;2023-02-10T00:16:57;47.50;;;20.30;;
44662;SDS011;30381;52.754;18.258;2023-02-10T00:19:25;54.00;;;22.40;;
44662;SDS011;30381;52.754;18.258;2023-02-10T00:22:01;47.80;;;20.70;;
44662;SDS011;30381;52.754;18.258;2023-02-10T00:24:30;48.20;;;20.30;;
44662;SDS011;30381;52.754;18.258;2023-02-10T00:26:59;47.60;;;20.50;;
44662;SDS011;30381;52.754;18.258;2023-02-10T00:29:29;56.70;;;24.70;;
44662;SDS011;30381;52.754;18.258;2023-02-10T00:31:57;49.00;;;21.70;;
44662;SDS011;30381;52.754;18.258;2023-02-10T00:34:23;48.60;;;21.40;;
44662;SDS011;30381;52.754;18.258;2023-02-10T00:36:50;43.20;;;19.90;;
44662;SDS011;30381;52.754;18.258;2023-02-10T00:39:17;43.80;;;19.90;;
44662;SDS011;30381;52.754;18.258;2023-02-10T00:42:03;50.40;;;20.70;;
44662;SDS011;30381;52.754;18.258;2023-02-10T00:44:30;44.50;;;21.10;;
44662;SDS011;30381;52.754;18.258;2023-02-10T00:47:17;47.00;;;20.60;;
44662;SDS011;30381;52.754;18.258;2023-02-10T00:49:43;48.30;;;22.20;;
44662;SDS011;30381;52.754;18.258;2023-02-10T00:52:09;46.20;;;19.70;;
44662;SDS011;30381;52.754;18.258;2023-02-10T00:54:35;46.10;;;19.90;;
44662;SDS011;30381;52.754;18.258;2023-02-10T00:57:02;46.60;;;20.20;;
44662;SDS011;30381;52.754;18.258;2023-02-10T00:59:28;39.80;;;18.90;;
44662;SDS011;30381;52.754;18.258;2023-02-10T01:01:56;42.00;;;19.30;;
44662;SDS011;30381;52.754;18.258;2023-02-10T01:04:27;44.40;;;20.00;;
44662;SDS011;30381;52.754;18.258;2023-02-10T01:06:53;42.20;;;19.10;;
44662;SDS011;30381;52.754;18.258;2023-02-10T01:09:25;41.90;;;19.50;;
44662;SDS011;30381;52.754;18.258;2023-02-10T01:11:51;48.20;;;19.50;;
44662;SDS011;30381;52.754;18.258;2023-02-10T01:14:17;45.50;;;19.40;;
44662;SDS011;30381;52.754;18.258;2023-02-10T01:16:53;42.90;;;18.50;;
44662;SDS011;30381;52.754;18.258;2023-02-10T01:19:20;43.00;;;19.80;;
44662;SDS011;30381;52.754;18.258;2023-02-10T01:21:46;43.40;;;20.50;;
44662;SDS011;30381;52.754;18.258;2023-02-10T01:24:12;40.10;;;19.10;;
44662;SDS011;30381;52.754;18.258;2023-02-10T01:26:39;42.10;;;18.30;;
44662;SDS011;30381;52.754;18.258;2023-02-10T01:29:06;45.30;;;19.90;;
44662;SDS011;30381;52.754;18.258;2023-02-10T01:31:32;42.30;;;19.20;;
44662;SDS011;30381;52.754;18.258;2023-02-10T01:33:58;43.60;;;19.10;;
44662;SDS011;30381;52.754;18.258;2023-02-10T01:36:24;51.10;;;22.90;;
44662;SDS011;30381;52.754;18.258;2023-02-10T01:38:52;47.20;;;20.40;;
44662;SDS011;30381;52.754;18.258;2023-02-10T01:41:19;40.60;;;18.30;;
44662;SDS011;30381;52.754;18.258;2023-02-10T01:46:21;42.30;;;19.30;;
44662;SDS011;30381;52.754;18.258;2023-02-10T01:48:48;41.80;;;19.40;;
44662;SDS011;30381;52.754;18.258;2023-02-10T01:51:15;45.30;;;20.20;;
44662;SDS011;30381;52.754;18.258;2023-02-10T01:53:49;40.30;;;18.90;;
44662;SDS011;30381;52.754;18.258;2023-02-10T01:56:17;44.30;;;20.80;;
44662;SDS011;30381;52.754;18.258;2023-02-10T01:59:03;42.20;;;18.90;;
44662;SDS011;30381;52.754;18.258;2023-02-10T02:01:29;42.80;;;20.00;;
44662;SDS011;30381;52.754;18.258;2023-02-10T02:03:56;44.20;;;20.10;;
44662;SDS011;30381;52.754;18.258;2023-02-10T02:06:24;41.80;;;19.40;;
44662;SDS011;30381;52.754;18.258;2023-02-10T02:09:12;41.50;;;20.60;;
44662;SDS011;30381;52.754;18.258;2023-02-10T02:11:48;36.90;;;16.70;;
44662;SDS011;30381;52.754;18.258;2023-02-10T02:17:01;36.40;;;17.20;;
44662;SDS011;30381;52.754;18.258;2023-02-10T02:19:58;38.90;;;17.00;;
44662;SDS011;30381;52.754;18.258;2023-02-10T02:26:26;42.40;;;18.50;;
44662;SDS011;30381;52.754;18.258;2023-02-10T02:34:01;38.70;;;17.00;;
44662;SDS011;30381;52.754;18.258;2023-02-10T02:36:44;39.20;;;17.80;;
44662;SDS011;30381;52.754;18.258;2023-02-10T02:39:22;40.40;;;18.20;;
44662;SDS011;30381;52.754;18.258;2023-02-10T02:42:12;45.10;;;19.00;;
44662;SDS011;30381;52.754;18.258;2023-02-10T02:44:41;44.10;;;19.30;;
44662;SDS011;30381;52.754;18.258;2023-02-10T02:47:17;41.60;;;19.00;;
44662;SDS011;30381;52.754;18.258;2023-02-10T02:49:52;47.10;;;19.00;;
44662;SDS011;30381;52.754;18.258;2023-02-10T02:52:29;48.40;;;21.10;;
44662;SDS011;30381;52.754;18.258;2023-02-10T02:58:00;37.80;;;19.70;;
44662;SDS011;30381;52.754;18.258;2023-02-10T03:00:34;40.40;;;19.00;;
44662;SDS011;30381;52.754;18.258;2023-02-10T03:03:02;44.40;;;22.00;;
44662;SDS011;30381;52.754;18.258;2023-02-10T03:05:31;37.40;;;17.60;;
44662;SDS011;30381;52.754;18.258;2023-02-10T03:08:00;41.50;;;17.60;;
44662;SDS011;30381;52.754;18.258;2023-02-10T03:10:28;35.60;;;16.80;;
44662;SDS011;30381;52.754;18.258;2023-02-10T03:12:54;35.20;;;16.60;;
44662;SDS011;30381;52.754;18.258;2023-02-10T03:15:20;38.80;;;17.70;;
44662;SDS011;30381;52.754;18.258;2023-02-10T03:17:47;36.80;;;17.50;;
44662;SDS011;30381;52.754;18.258;2023-02-10T03:20:13;34.40;;;15.90;;
44662;SDS011;30381;52.754;18.258;2023-02-10T03:22:43;33.90;;;15.90;;
44662;SDS011;30381;52.754;18.258;2023-02-10T03:25:10;35.50;;;16.70;;
44662;SDS011;30381;52.754;18.258;2023-02-10T03:27:44;38.10;;;16.40;;
44662;SDS011;30381;52.754;18.258;2023-02-10T03:30:10;35.50;;;17.20;;
44662;SDS011;30381;52.754;18.258;2023-02-10T03:32:36;32.30;;;15.50;;
44662;SDS011;30381;52.754;18.258;2023-02-10T03:35:02;31.80;;;16.10;;
44662;SDS011;30381;52.754;18.258;2023-02-10T03:37:37;35.80;;;14.90;;
44662;SDS011;30381;52.754;18.258;2023-02-10T03:40:04;34.70;;;14.80;;
44662;SDS011;30381;52.754;18.258;2023-02-10T03:42:30;34.80;;;16.50;;
44662;SDS011;30381;52.754;18.258;2023-02-10T03:44:56;34.70;;;16.10;;
44662;SDS011;30381;52.754;18.258;2023-02-10T03:47:22;33.40;;;16.90;;
44662;SDS011;30381;52.754;18.258;2023-02-10T03:49:48;34.70;;;15.40;;
44662;SDS011;30381;52.754;18.258;2023-02-10T03:52:15;38.50;;;16.50;;
44662;SDS011;30381;52.754;18.258;2023-02-10T03:54:42;38.60;;;19.50;;
44662;SDS011;30381;52.754;18.258;2023-02-10T03:57:08;43.90;;;19.80;;
44662;SDS011;30381;52.754;18.258;2023-02-10T03:59:36;37.00;;;17.10;;
44662;SDS011;30381;52.754;18.258;2023-02-10T04:02:03;33.60;;;15.80;;
44662;SDS011;30381;52.754;18.258;2023-02-10T04:04:29;34.80;;;16.40;;
44662;SDS011;30381;52.754;18.258;2023-02-10T04:07:15;38.80;;;17.40;;
44662;SDS011;30381;52.754;18.258;2023-02-10T04:09:41;36.80;;;17.40;;
44662;SDS011;30381;52.754;18.258;2023-02-10T04:12:07;36.00;;;16.60;;
44662;SDS011;30381;52.754;18.258;2023-02-10T04:14:34;39.50;;;17.70;;
44662;SDS011;30381;52.754;18.258;2023-02-10T04:17:00;36.20;;;17.60;;
44662;SDS011;30381;52.754;18.258;2023-02-10T04:19:26;42.10;;;17.70;;
44662;SDS011;30381;52.754;18.258;2023-02-10T04:21:52;38.60;;;18.40;;
44662;SDS011;30381;52.754;18.258;2023-02-10T04:24:19;33.50;;;17.00;;
44662;SDS011;30381;52.754;18.258;2023-02-10T04:26:45;42.00;;;17.20;;
44662;SDS011;30381;52.754;18.258;2023-02-10T04:29:12;38.10;;;17.60;;
44662;SDS011;30381;52.754;18.258;2023-02-10T04:31:38;40.10;;;18.70;;
44662;SDS011;30381;52.754;18.258;2023-02-10T04:34:04;41.80;;;19.40;;
44662;SDS011;30381;52.754;18.258;2023-02-10T04:36:30;51.20;;;23.30;;
44662;SDS011;30381;52.754;18.258;2023-02-10T04:39:20;38.00;;;18.60;;
44662;SDS011;30381;52.754;18.258;2023-02-10T04:41:47;42.50;;;19.60;;
44662;SDS011;30381;52.754;18.258;2023-02-10T04:44:13;39.20;;;18.60;;
44662;SDS011;30381;52.754;18.258;2023-02-10T04:46:39;41.00;;;19.00;;
44662;SDS011;30381;52.754;18.258;2023-02-10T04:49:05;38.00;;;17.80;;
44662;SDS011;30381;52.754;18.258;2023-02-10T04:51:32;36.10;;;16.40;;
44662;SDS011;30381;52.754;18.258;2023-02-10T04:53:58;37.50;;;16.40;;
44662;SDS011;30381;52.754;18.258;2023-02-10T04:56:24;41.10;;;17.80;;
44662;SDS011;30381;52.754;18.258;2023-02-10T04:58:50;36.70;;;18.10;;
44662;SDS011;30381;52.754;18.258;2023-02-10T05:01:17;39.10;;;16.90;;
44662;SDS011;30381;52.754;18.258;2023-02-10T05:03:44;35.40;;;16.80;;
44662;SDS011;30381;52.754;18.258;2023-02-10T05:06:11;34.20;;;15.20;;
44662;SDS011;30381;52.754;18.258;2023-02-10T05:08:39;35.00;;;15.50;;
44662;SDS011;30381;52.754;18.258;2023-02-10T05:11:12;36.50;;;15.90;;
44662;SDS011;30381;52.754;18.258;2023-02-10T05:13:40;37.00;;;16.50;;
44662;SDS011;30381;52.754;18.258;2023-02-10T05:16:08;36.30;;;16.50;;
44662;SDS011;30381;52.754;18.258;2023-02-10T05:18:35;38.30;;;16.10;;
44662;SDS011;30381;52.754;18.258;2023-02-10T05:21:04;36.70;;;16.50;;
44662;SDS011;30381;52.754;18.258;2023-02-10T05:23:33;36.80;;;16.40;;
44662;SDS011;30381;52.754;18.258;2023-02-10T05:26:01;36.90;;;16.30;;
44662;SDS011;30381;52.754;18.258;2023-02-10T05:28:44;36.50;;;16.30;;
44662;SDS011;30381;52.754;18.258;2023-02-10T05:31:10;44.40;;;18.80;;
44662;SDS011;30381;52.754;18.258;2023-02-10T05:33:36;41.30;;;17.40;;
44662;SDS011;30381;52.754;18.258;2023-02-10T05:36:04;39.20;;;17.80;;
44662;SDS011;30381;52.754;18.258;2023-02-10T05:38:31;39.40;;;18.00;;
44662;SDS011;30381;52.754;18.258;2023-02-10T05:40:57;35.90;;;17.60;;
44662;SDS011;30381;52.754;18.258;2023-02-10T05:43:23;37.10;;;17.90;;
44662;SDS011;30381;52.754;18.258;2023-02-10T05:45:49;38.80;;;18.10;;
44662;SDS011;30381;52.754;18.258;2023-02-10T05:48:15;43.20;;;19.40;;
44662;SDS011;30381;52.754;18.258;2023-02-10T05:50:41;40.50;;;18.10;;
44662;SDS011;30381;52.754;18.258;2023-02-10T05:53:08;37.70;;;16.50;;
44662;SDS011;30381;52.754;18.258;2023-02-10T05:55:35;49.80;;;22.40;;
44662;SDS011;30381;52.754;18.258;2023-02-10T05:58:02;48.50;;;21.40;;
44662;SDS011;30381;52.754;18.258;2023-02-10T06:00:28;52.30;;;23.60;;
44662;SDS011;30381;52.754;18.258;2023-02-10T06:02:54;54.80;;;23.10;;
44662;SDS011;30381;52.754;18.258;2023-02-10T06:05:20;56.10;;;26.50;;
44662;SDS011;30381;52.754;18.258;2023-02-10T06:07:46;62.00;;;26.20;;
44662;SDS011;30381;52.754;18.258;2023-02-10T06:10:12;57.40;;;26.60;;
44662;SDS011;30381;52.754;18.258;2023-02-10T06:12:38;55.00;;;25.90;;
44662;SDS011;30381;52.754;18.258;2023-02-10T06:15:05;51.90;;;23.80;;
44662;SDS011;30381;52.754;18.258;2023-02-10T06:17:32;57.70;;;26.50;;
44662;SDS011;30381;52.754;18.258;2023-02-10T06:20:00;56.00;;;25.50;;
44662;SDS011;30381;52.754;18.258;2023-02-10T06:22:27;47.70;;;22.30;;
44662;SDS011;30381;52.754;18.258;2023-02-10T06:25:05;49.50;;;22.10;;
44662;SDS011;30381;52.754;18.258;2023-02-10T06:30:46;44.20;;;20.80;;
44662;SDS011;30381;52.754;18.258;2023-02-10T06:33:14;44.50;;;21.40;;
44662;SDS011;30381;52.754;18.258;2023-02-10T06:35:50;44.70;;;19.90;;
44662;SDS011;30381;52.754;18.258;2023-02-10T06:38:25;48.60;;;22.30;;
44662;SDS011;30381;52.754;18.258;2023-02-10T06:40:51;55.00;;;26.10;;
44662;SDS011;30381;52.754;18.258;2023-02-10T06:43:18;45.70;;;22.10;;
44662;SDS011;30381;52.754;18.258;2023-02-10T06:45:46;40.30;;;18.40;;
44662;SDS011;30381;52.754;18.258;2023-02-10T06:48:13;42.10;;;18.50;;
44662;SDS011;30381;52.754;18.258;2023-02-10T06:50:40;37.80;;;17.80;;
44662;SDS011;30381;52.754;18.258;2023-02-10T06:53:06;38.40;;;17.00;;
44662;SDS011;30381;52.754;18.258;2023-02-10T06:55:33;39.20;;;17.60;;
44662;SDS011;30381;52.754;18.258;2023-02-10T06:58:02;38.30;;;18.50;;
44662;SDS011;30381;52.754;18.258;2023-02-10T07:00:30;40.70;;;19.00;;
44662;SDS011;30381;52.754;18.258;2023-02-10T07:02:58;41.00;;;18.90;;
44662;SDS011;30381;52.754;18.258;2023-02-10T07:05:26;42.20;;;19.80;;
44662;SDS011;30381;52.754;18.258;2023-02-10T07:07:53;40.30;;;19.20;;
44662;SDS011;30381;52.754;18.258;2023-02-10T07:10:20;38.80;;;18.20;;
44662;SDS011;30381;52.754;18.258;2023-02-10T07:12:47;37.90;;;16.50;;
44662;SDS011;30381;52.754;18.258;2023-02-10T07:15:14;40.70;;;17.10;;
44662;SDS011;30381;52.754;18.258;2023-02-10T07:17:42;41.10;;;17.50;;
44662;SDS011;30381;52.754;18.258;2023-02-10T07:20:08;33.00;;;16.50;;
44662;SDS011;30381;52.754;18.258;2023-02-10T07:22:35;38.40;;;17.40;;
44662;SDS011;30381;52.754;18.258;2023-02-10T07:25:01;34.80;;;17.40;;
44662;SDS011;30381;52.754;18.258;2023-02-10T07:27:28;37.60;;;17.10;;
44662;SDS011;30381;52.754;18.258;2023-02-10T07:29:54;33.90;;;16.10;;
44662;SDS011;30381;52.754;18.258;2023-02-10T07:32:20;41.10;;;19.40;;
44662;SDS011;30381;52.754;18.258;2023-02-10T07:34:46;37.60;;;17.70;;
44662;SDS011;30381;52.754;18.258;2023-02-10T07:37:19;37.10;;;17.60;;
44662;SDS011;30381;52.754;18.258;2023-02-10T07:39:46;41.20;;;18.40;;
44662;SDS011;30381;52.754;18.258;2023-02-10T07:42:12;40.30;;;17.30;;
44662;SDS011;30381;52.754;18.258;2023-02-10T07:44:38;38.60;;;17.40;;
44662;SDS011;30381;52.754;18.258;2023-02-10T07:49:52;38.40;;;17.10;;
44662;SDS011;30381;52.754;18.258;2023-02-10T07:52:21;32.70;;;16.50;;
44662;SDS011;30381;52.754;18.258;2023-02-10T07:54:48;35.80;;;16.60;;
44662;SDS011;30381;52.754;18.258;2023-02-10T07:57:15;39.10;;;18.00;;
44662;SDS011;30381;52.754;18.258;2023-02-10T07:59:41;38.10;;;18.00;;
44662;SDS011;30381;52.754;18.258;2023-02-10T08:02:11;37.30;;;17.40;;
44662;SDS011;30381;52.754;18.258;2023-02-10T08:04:38;40.50;;;18.50;;
44662;SDS011;30381;52.754;18.258;2023-02-10T08:07:06;39.80;;;18.10;;
44662;SDS011;30381;52.754;18.258;2023-02-10T08:09:32;38.20;;;18.50;;
44662;SDS011;30381;52.754;18.258;2023-02-10T08:11:58;42.40;;;17.80;;
44662;SDS011;30381;52.754;18.258;2023-02-10T08:14:24;37.20;;;18.10;;
44662;SDS011;30381;52.754;18.258;2023-02-10T08:16:51;38.60;;;17.50;;
44662;SDS011;30381;52.754;18.258;2023-02-10T08:19:25;36.90;;;17.80;;
44662;SDS011;30381;52.754;18.258;2023-02-10T08:22:26;55.40;;;20.40;;
44662;SDS011;30381;52.754;18.258;2023-02-10T08:24:53;39.20;;;18.10;;
44662;SDS011;30381;52.754;18.258;2023-02-10T08:27:20;47.10;;;18.60;;
44662;SDS011;30381;52.754;18.258;2023-02-10T08:29:46;43.80;;;19.50;;
44662;SDS011;30381;52.754;18.258;2023-02-10T08:32:12;36.70;;;18.10;;
44662;SDS011;30381;52.754;18.258;2023-02-10T08:34:45;42.30;;;19.20;;
44662;SDS011;30381;52.754;18.258;2023-02-10T08:37:12;43.00;;;20.20;;
44662;SDS011;30381;52.754;18.258;2023-02-10T08:39:42;44.70;;;20.20;;
44662;SDS011;30381;52.754;18.258;2023-02-10T08:42:09;41.80;;;18.70;;
44662;SDS011;30381;52.754;18.258;2023-02-10T08:44:36;44.00;;;19.50;;
44662;SDS011;30381;52.754;18.258;2023-02-10T08:47:03;43.60;;;18.60;;
44662;SDS011;30381;52.754;18.258;2023-02-10T08:49:33;39.70;;;19.40;;
44662;SDS011;30381;52.754;18.258;2023-02-10T08:52:09;35.80;;;17.80;;
44662;SDS011;30381;52.754;18.258;2023-02-10T08:54:38;42.80;;;19.60;;
44662;SDS011;30381;52.754;18.258;2023-02-10T08:57:07;41.00;;;18.90;;
44662;SDS011;30381;52.754;18.258;2023-02-10T08:59:52;46.00;;;20.60;;
44662;SDS011;30381;52.754;18.258;2023-02-10T09:02:21;44.30;;;19.20;;
44662;SDS011;30381;52.754;18.258;2023-02-10T09:04:50;40.00;;;18.40;;
44662;SDS011;30381;52.754;18.258;2023-02-10T09:07:19;42.60;;;17.50;;
44662;SDS011;30381;52.754;18.258;2023-02-10T09:09:50;40.60;;;19.10;;
44662;SDS011;30381;52.754;18.258;2023-02-10T09:12:17;46.70;;;21.80;;
44662;SDS011;30381;52.754;18.258;2023-02-10T09:14:46;45.70;;;20.90;;
44662;SDS011;30381;52.754;18.258;2023-02-10T09:17:16;46.00;;;21.30;;
44662;SDS011;30381;52.754;18.258;2023-02-10T09:19:52;39.90;;;19.80;;
44662;SDS011;30381;52.754;18.258;2023-02-10T09:22:24;43.30;;;19.60;;
44662;SDS011;30381;52.754;18.258;2023-02-10T09:25:00;46.20;;;19.50;;
44662;SDS011;30381;52.754;18.258;2023-02-10T09:27:27;42.30;;;19.80;;
44662;SDS011;30381;52.754;18.258;2023-02-10T09:29:53;41.80;;;20.50;;
44662;SDS011;30381;52.754;18.258;2023-02-10T09:32:22;43.40;;;20.20;;
44662;SDS011;30381;52.754;18.258;2023-02-10T09:34:49;44.70;;;21.40;;
44662;SDS011;30381;52.754;18.258;2023-02-10T09:37:19;40.70;;;21.10;;
44662;SDS011;30381;52.754;18.258;2023-02-10T09:39:48;39.20;;;19.10;;
44662;SDS011;30381;52.754;18.258;2023-02-10T09:42:20;42.10;;;20.50;;
44662;SDS011;30381;52.754;18.258;2023-02-10T09:45:22;43.70;;;20.40;;
44662;SDS011;30381;52.754;18.258;2023-02-10T09:48:06;44.30;;;20.70;;
44662;SDS011;30381;52.754;18.258;2023-02-10T09:53:52;52.40;;;23.60;;
44662;SDS011;30381;52.754;18.258;2023-02-10T09:56:21;45.70;;;21.00;;
44662;SDS011;30381;52.754;18.258;2023-02-10T09:58:52;43.60;;;21.00;;
44662;SDS011;30381;52.754;18.258;2023-02-10T10:01:32;43.50;;;21.50;;
44662;SDS011;30381;52.754;18.258;2023-02-10T10:06:39;44.40;;;22.80;;
44662;SDS011;30381;52.754;18.258;2023-02-10T10:13:01;46.00;;;20.60;;
44662;SDS011;30381;52.754;18.258;2023-02-10T10:15:31;40.60;;;20.20;;
44662;SDS011;30381;52.754;18.258;2023-02-10T10:23:53;41.20;;;20.60;;
44662;SDS011;30381;52.754;18.258;2023-02-10T10:32:04;46.70;;;23.20;;
44662;SDS011;30381;52.754;18.258;2023-02-10T10:34:44;47.50;;;22.70;;
44662;SDS011;30381;52.754;18.258;2023-02-10T10:37:18;44.30;;;21.60;;
44662;SDS011;30381;52.754;18.258;2023-02-10T10:39:53;45.40;;;22.50;;
44662;SDS011;30381;52.754;18.258;2023-02-10T10:42:28;41.80;;;21.10;;
44662;SDS011;30381;52.754;18.258;2023-02-10T10:45:07;43.20;;;20.30;;
44662;SDS011;30381;52.754;18.258;2023-02-10T10:47:50;43.90;;;19.80;;
44662;SDS011;30381;52.754;18.258;2023-02-10T10:50:21;44.70;;;21.40;;
44662;SDS011;30381;52.754;18.258;2023-02-10T10:52:51;42.50;;;19.20;;
44662;SDS011;30381;52.754;18.258;2023-02-10T10:55:24;45.60;;;20.60;;
44662;SDS011;30381;52.754;18.258;2023-02-10T10:57:58;46.50;;;21.40;;
44662;SDS011;30381;52.754;18.258;2023-02-10T11:00:33;48.10;;;22.80;;
44662;SDS011;30381;52.754;18.258;2023-02-10T11:03:01;38.50;;;19.70;;
44662;SDS011;30381;52.754;18.258;2023-02-10T11:05:33;45.00;;;20.70;;
44662;SDS011;30381;52.754;18.258;2023-02-10T11:08:06;47.40;;;22.60;;
44662;SDS011;30381;52.754;18.258;2023-02-10T11:10:50;40.90;;;21.20;;
44662;SDS011;30381;52.754;18.258;2023-02-10T11:13:30;43.00;;;21.30;;
44662;SDS011;30381;52.754;18.258;2023-02-10T11:16:06;47.30;;;21.60;;
44662;SDS011;30381;52.754;18.258;2023-02-10T11:18:51;46.50;;;23.20;;
44662;SDS011;30381;52.754;18.258;2023-02-10T11:21:20;50.30;;;22.60;;
44662;SDS011;30381;52.754;18.258;2023-02-10T11:23:47;44.20;;;21.70;;
44662;SDS011;30381;52.754;18.258;2023-02-10T11:26:23;45.80;;;21.90;;
44662;SDS011;30381;52.754;18.258;2023-02-10T11:28:54;42.40;;;21.80;;
44662;SDS011;30381;52.754;18.258;2023-02-10T11:33:58;46.90;;;21.00;;
44662;SDS011;30381;52.754;18.258;2023-02-10T11:36:42;53.80;;;21.50;;
44662;SDS011;30381;52.754;18.258;2023-02-10T11:39:20;46.30;;;20.90;;
44662;SDS011;30381;52.754;18.258;2023-02-10T11:41:55;52.60;;;23.10;;
44662;SDS011;30381;52.754;18.258;2023-02-10T11:47:37;44.70;;;22.00;;
44662;SDS011;30381;52.754;18.258;2023-02-10T11:50:18;53.20;;;24.00;;
44662;SDS011;30381;52.754;18.258;2023-02-10T11:52:51;52.60;;;28.40;;
44662;SDS011;30381;52.754;18.258;2023-02-10T11:55:18;47.40;;;25.30;;
44662;SDS011;30381;52.754;18.258;2023-02-10T12:01:09;45.70;;;22.90;;
44662;SDS011;30381;52.754;18.258;2023-02-10T12:27:33;137.50;;;45.50;;
44662;SDS011;30381;52.754;18.258;2023-02-10T12:36:17;84.20;;;33.80;;
44662;SDS011;30381;52.754;18.258;2023-02-10T12:56:42;120.70;;;49.10;;
44662;SDS011;30381;52.754;18.258;2023-02-10T12:59:28;99.50;;;35.80;;
44662;SDS011;30381;52.754;18.258;2023-02-10T13:05:12;97.10;;;32.70;;
44662;SDS011;30381;52.754;18.258;2023-02-10T13:07:53;115.90;;;39.10;;
44662;SDS011;30381;52.754;18.258;2023-02-10T13:10:42;126.30;;;40.50;;
44662;SDS011;30381;52.754;18.258;2023-02-10T13:13:17;111.70;;;38.40;;
44662;SDS011;30381;52.754;18.258;2023-02-10T13:15:58;159.10;;;47.20;;
44662;SDS011;30381;52.754;18.258;2023-02-10T13:21:43;142.20;;;42.80;;
44662;SDS011;30381;52.754;18.258;2023-02-10T13:24:24;179.90;;;90.50;;
44662;SDS011;30381;52.754;18.258;2023-02-10T13:30:20;114.50;;;41.20;;
44662;SDS011;30381;52.754;18.258;2023-02-10T13:35:46;98.90;;;38.20;;
44662;SDS011;30381;52.754;18.258;2023-02-10T13:38:16;88.10;;;33.80;;
44662;SDS011;30381;52.754;18.258;2023-02-10T13:52:34;72.40;;;33.10;;
44662;SDS011;30381;52.754;18.258;2023-02-10T13:55:03;64.60;;;27.20;;
44662;SDS011;30381;52.754;18.258;2023-02-10T13:57:35;66.00;;;28.20;;
44662;SDS011;30381;52.754;18.258;2023-02-10T14:00:17;67.50;;;29.00;;
44662;SDS011;30381;52.754;18.258;2023-02-10T14:03:17;71.10;;;28.50;;
44662;SDS011;30381;52.754;18.258;2023-02-10T14:06:03;67.80;;;27.80;;
44662;SDS011;30381;52.754;18.258;2023-02-10T14:12:02;65.30;;;27.30;;
44662;SDS011;30381;52.754;18.258;2023-02-10T14:14:29;58.90;;;25.40;;
44662;SDS011;30381;52.754;18.258;2023-02-10T14:17:17;61.60;;;26.30;;
44662;SDS011;30381;52.754;18.258;2023-02-10T14:19:56;63.60;;;26.70;;
44662;SDS011;30381;52.754;18.258;2023-02-10T14:25:24;60.30;;;26.30;;
44662;SDS011;30381;52.754;18.258;2023-02-10T14:27:54;64.10;;;27.30;;
44662;SDS011;30381;52.754;18.258;2023-02-10T14:30:23;70.40;;;30.80;;
44662;SDS011;30381;52.754;18.258;2023-02-10T14:33:02;78.50;;;32.50;;
44662;SDS011;30381;52.754;18.258;2023-02-10T14:35:53;81.00;;;37.90;;
44662;SDS011;30381;52.754;18.258;2023-02-10T14:38:23;74.20;;;33.50;;
44662;SDS011;30381;52.754;18.258;2023-02-10T14:40:56;65.80;;;28.30;;
44662;SDS011;30381;52.754;18.258;2023-02-10T14:43:25;67.60;;;28.90;;
44662;SDS011;30381;52.754;18.258;2023-02-10T14:45:57;62.60;;;24.30;;
44662;SDS011;30381;52.754;18.258;2023-02-10T14:48:27;59.70;;;26.80;;
44662;SDS011;30381;52.754;18.258;2023-02-10T14:51:03;67.40;;;27.70;;
44662;SDS011;30381;52.754;18.258;2023-02-10T14:53:35;58.60;;;26.80;;
44662;SDS011;30381;52.754;18.258;2023-02-10T14:56:12;60.40;;;25.60;;
44662;SDS011;30381;52.754;18.258;2023-02-10T14:58:42;59.90;;;26.00;;
44662;SDS011;30381;52.754;18.258;2023-02-10T15:03:48;61.40;;;25.90;;
44662;SDS011;30381;52.754;18.258;2023-02-10T15:06:21;69.20;;;27.30;;
44662;SDS011;30381;52.754;18.258;2023-02-10T15:08:56;66.00;;;26.20;;
44662;SDS011;30381;52.754;18.258;2023-02-10T15:11:58;60.60;;;24.90;;
44662;SDS011;30381;52.754;18.258;2023-02-10T15:17:25;67.10;;;29.20;;
44662;SDS011;30381;52.754;18.258;2023-02-10T15:19:59;71.10;;;30.40;;
44662;SDS011;30381;52.754;18.258;2023-02-10T15:22:39;63.60;;;31.30;;
44662;SDS011;30381;52.754;18.258;2023-02-10T15:25:33;69.70;;;30.50;;
44662;SDS011;30381;52.754;18.258;2023-02-10T15:30:57;71.70;;;30.00;;
44662;SDS011;30381;52.754;18.258;2023-02-10T15:38:45;80.90;;;36.10;;
44662;SDS011;30381;52.754;18.258;2023-02-10T15:42:37;72.60;;;28.60;;
44662;SDS011;30381;52.754;18.258;2023-02-10T15:44:40;72.70;;;39.50;;
44662;SDS011;30381;52.754;18.258;2023-02-10T15:47:24;69.80;;;30.30;;
44662;SDS011;30381;52.754;18.258;2023-02-10T15:49:57;63.30;;;28.50;;
44662;SDS011;30381;52.754;18.258;2023-02-10T15:52:33;63.50;;;29.50;;
44662;SDS011;30381;52.754;18.258;2023-02-10T17:16:24;72.90;;;30.00;;
44662;SDS011;30381;52.754;18.258;2023-02-10T17:25:36;83.10;;;36.10;;
44662;SDS011;30381;52.754;18.258;2023-02-10T17:28:42;84.00;;;37.10;;
44662;SDS011;30381;52.754;18.258;2023-02-10T17:31:38;82.90;;;36.90;;
44662;SDS011;30381;52.754;18.258;2023-02-10T17:34:43;76.80;;;35.80;;
44662;SDS011;30381;52.754;18.258;2023-02-10T17:38:18;80.20;;;34.20;;
44662;SDS011;30381;52.754;18.258;2023-02-10T17:42:05;97.80;;;36.30;;
44662;SDS011;30381;52.754;18.258;2023-02-10T17:44:36;79.00;;;35.90;;
44662;SDS011;30381;52.754;18.258;2023-02-10T17:47:57;82.40;;;35.50;;
44662;SDS011;30381;52.754;18.258;2023-02-10T17:51:35;87.00;;;37.10;;
44662;SDS011;30381;52.754;18.258;2023-02-10T17:54:28;80.20;;;35.10;;
44662;SDS011;30381;52.754;18.258;2023-02-10T17:57:16;80.00;;;33.70;;
44662;SDS011;30381;52.754;18.258;2023-02-10T18:00:05;80.50;;;35.00;;
44662;SDS011;30381;52.754;18.258;2023-02-10T18:03:54;79.40;;;33.80;;
44662;SDS011;30381;52.754;18.258;2023-02-10T18:06:48;77.80;;;33.40;;
44662;SDS011;30381;52.754;18.258;2023-02-10T18:09:32;75.10;;;32.60;;
44662;SDS011;30381;52.754;18.258;2023-02-10T18:12:54;72.50;;;34.00;;
44662;SDS011;30381;52.754;18.258;2023-02-10T18:23:39;71.10;;;32.20;;
44662;SDS011;30381;52.754;18.258;2023-02-10T18:32:13;81.10;;;32.60;;
44662;SDS011;30381;52.754;18.258;2023-02-10T18:34:53;78.60;;;32.70;;
44662;SDS011;30381;52.754;18.258;2023-02-10T18:41:48;84.60;;;34.40;;
44662;SDS011;30381;52.754;18.258;2023-02-10T18:48:53;68.90;;;30.80;;
44662;SDS011;30381;52.754;18.258;2023-02-10T18:51:27;71.90;;;29.70;;
44662;SDS011;30381;52.754;18.258;2023-02-10T22:36:37;65.70;;;25.60;;
44662;SDS011;30381;52.754;18.258;2023-02-10T22:39:29;61.90;;;24.70;;
44662;SDS011;30381;52.754;18.258;2023-02-10T22:42:06;62.70;;;27.30;;